This is the latest recevied weather packets stored in our database for station/object W4TJP. If no packets are shown the sender has not sent any weather packets the latest 10 day(s).
| Time | Temp. | Humidity | Pressure | Rain* | Wind** | Luminosity | Snow |
|---|---|---|---|---|---|---|---|
| 1777406186 | 24.44° C | 74% | 1016.5 hPa | 0 mm | - | 217 W/m² | - |
| 1777405881 | 23.89° C | 77% | 1016.5 hPa | 0 mm | - | 114 W/m² | - |
| 1777405577 | 23.33° C | 79% | 1016.6 hPa | 0 mm | - | 653 W/m² | - |
| 1777405274 | 23.89° C | 75% | 1016.6 hPa | 0 mm | - | 156 W/m² | - |
| 1777404974 | 23.89° C | 75% | 1016.9 hPa | 0 mm | - | 186 W/m² | - |
| 1777404669 | 23.89° C | 76% | 1016.9 hPa | 0 mm | - | 721 W/m² | - |
| 1777404365 | 24.44° C | 75% | 1017 hPa | 0 mm | - | 144 W/m² | - |
| 1777404062 | 25° C | 75% | 1017.3 hPa | 0 mm | - | 416 W/m² | - |
| 1777403758 | 24.44° C | 75% | 1017.3 hPa | 0 mm | - | 318 W/m² | - |
| 1777403456 | 23.33° C | 77% | 1017.2 hPa | 0 mm | - | 308 W/m² | - |
| 1777403156 | 22.78° C | 80% | 1017.2 hPa | 0 mm | - | 243 W/m² | - |
| 1777402852 | 23.33° C | 77% | 1017 hPa | 0 mm | - | 276 W/m² | - |
| 1777402549 | 23.89° C | 76% | 1016.9 hPa | 0 mm | - | 214 W/m² | - |
| 1777402246 | 23.33° C | 77% | 1016.7 hPa | 0 mm | - | 891 W/m² | - |
| 1777401941 | 22.78° C | 80% | 1016.7 hPa | 0 mm | - | 564 W/m² | - |
| 1777401640 | 22.78° C | 80% | 1016.9 hPa | 0 mm | - | 202 W/m² | - |
| 1777401337 | 22.78° C | 80% | 1016.9 hPa | 0 mm | - | 274 W/m² | - |
| 1777401033 | 22.78° C | 80% | 1017.2 hPa | 0 mm | - | 173 W/m² | - |
| 1777400728 | 22.78° C | 80% | 1016.8 hPa | 0 mm | - | 233 W/m² | - |
| 1777400426 | 22.78° C | 79% | 1017 hPa | 0 mm | - | 209 W/m² | - |
| 1777400126 | 22.22° C | 80% | 1017.2 hPa | 0 mm | - | 182 W/m² | - |
| 1777399824 | 22.22° C | 80% | 1017.3 hPa | 0 mm | - | 204 W/m² | - |
| 1777399521 | 22.78° C | 79% | 1017.4 hPa | 0 mm | - | 209 W/m² | - |
| 1777399218 | 22.78° C | 79% | 1017 hPa | 0 mm | - | 213 W/m² | - |
| 1777398915 | 22.22° C | 79% | 1017.3 hPa | 0 mm | - | 212 W/m² | - |
* Rain latest hour (hover to see other rain measurements)
** Current wind speed in m/s (hover to see current wind gust speed)